Time;durP1;ratioP1;P1;durP2;ratioP2;P2;SDS_P1;SDS_P2;PMS_P1;PMS_P2;Temp;Humidity;BMP_temperature;BMP_pressure;BME280_temperature;BME280_humidity;BME280_pressure;Samples;Min_cycle;Max_cycle;Signal;HPM_P1;HPM_P2
2021/12/18 00:02:16;;;;;;;211.95;109.90;;;;;;;7.94;100.00;99350.81;4837705;29;20065;-63
2021/12/18 00:05:05;;;;;;;225.55;111.55;;;;;;;8.06;100.00;99349.84;4837096;29;20061;-63
2021/12/18 00:07:47;;;;;;;237.30;116.13;;;;;;;8.06;100.00;99348.09;4830229;29;20054;-63
2021/12/18 00:10:36;;;;;;;223.93;113.57;;;;;;;8.11;100.00;99354.94;4837386;29;20095;-63
2021/12/18 00:13:19;;;;;;;235.13;114.75;;;;;;;8.04;100.00;99355.00;4837207;29;20050;-63
2021/12/18 00:16:14;;;;;;;226.23;116.47;;;;;;;8.04;100.00;99362.69;4837146;29;20554;-63
2021/12/18 00:18:52;;;;;;;238.48;120.88;;;;;;;7.98;100.00;99361.91;4837564;29;20053;-63
2021/12/18 00:21:39;;;;;;;;;;;;;;;8.06;100.00;99363.50;4837972;29;20061;-63
2021/12/18 00:24:21;;;;;;;211.27;111.30;;;;;;;8.11;100.00;99368.63;4836934;29;19928;-64
2021/12/18 00:27:16;;;;;;;228.80;115.35;;;;;;;8.14;100.00;99372.88;4843158;29;20050;-63
2021/12/18 00:29:51;;;;;;;225.05;114.00;;;;;;;8.02;100.00;99381.50;4835750;29;20410;-64
2021/12/18 00:32:46;;;;;;;233.85;113.78;;;;;;;7.94;100.00;99381.59;4836397;29;20530;-63
2021/12/18 00:35:41;;;;;;;227.27;112.85;;;;;;;7.98;100.00;99388.38;4821057;29;20088;-64
2021/12/18 00:38:30;;;;;;;211.50;110.30;;;;;;;7.86;100.00;99388.50;4847289;29;20063;-64
2021/12/18 00:41:16;;;;;;;214.73;109.25;;;;;;;7.81;100.00;99390.25;4830242;29;20474;-63
2021/12/18 00:44:04;;;;;;;217.20;107.40;;;;;;;7.85;100.00;99394.47;4837959;29;20050;-63
2021/12/18 00:46:50;;;;;;;204.75;106.25;;;;;;;7.77;100.00;99388.56;4832973;29;20058;-64
2021/12/18 00:49:39;;;;;;;229.18;111.80;;;;;;;7.63;100.00;99395.50;4835513;29;20083;-64
2021/12/18 00:52:21;;;;;;;214.05;108.80;;;;;;;7.56;100.00;99394.69;4836526;29;20691;-63
2021/12/18 00:55:10;;;;;;;212.80;105.43;;;;;;;7.67;100.00;99394.59;4837275;29;20061;-64
2021/12/18 00:57:59;;;;;;;200.80;103.20;;;;;;;7.63;100.00;99390.38;4837274;29;20080;-63
2021/12/18 01:00:52;;;;;;;204.90;104.40;;;;;;;7.53;100.00;99387.00;4835153;29;20056;-63
2021/12/18 01:03:35;;;;;;;217.40;106.53;;;;;;;7.41;100.00;99388.81;4835539;29;20064;-63
2021/12/18 01:06:25;;;;;;;198.00;102.07;;;;;;;7.48;100.00;99396.44;4836193;29;20069;-63
2021/12/18 01:09:07;;;;;;;207.77;107.03;;;;;;;7.43;100.00;99392.19;4836511;29;20046;-63
2021/12/18 01:11:55;;;;;;;209.05;109.13;;;;;;;7.61;100.00;99395.50;4835568;29;20087;-63
2021/12/18 01:15:08;;;;;;;200.38;101.90;;;;;;;7.57;100.00;99403.25;4837456;29;20658;-64
2021/12/18 01:24:10;;;;;;;212.85;107.28;;;;;;;7.58;100.00;99402.38;4839297;29;20042;-63
2021/12/18 01:26:45;;;;;;;214.40;108.57;;;;;;;7.59;100.00;99411.75;4846416;29;20130;-64
2021/12/18 01:29:33;;;;;;;196.10;102.53;;;;;;;7.80;100.00;99418.47;4842454;29;20477;-63
2021/12/18 01:32:15;;;;;;;203.10;101.40;;;;;;;7.76;100.00;99417.63;4842638;29;20053;-63
2021/12/18 01:35:11;;;;;;;198.70;98.82;;;;;;;7.72;100.00;99421.09;4838466;29;20054;-64
2021/12/18 01:38:06;;;;;;;186.35;94.65;;;;;;;7.67;100.00;99431.34;4845590;29;20145;-63
2021/12/18 01:40:42;;;;;;;175.38;91.22;;;;;;;7.64;100.00;99427.97;4840649;29;20058;-62
2021/12/18 01:46:41;;;;;;;181.02;91.93;;;;;;;7.60;100.00;99428.84;4823904;29;20575;-63
2021/12/18 01:52:35;;;;;;;201.73;95.30;;;;;;;7.64;100.00;99451.91;4828179;29;20065;-63
2021/12/18 01:55:16;;;;;;;202.05;96.88;;;;;;;7.50;100.00;99447.72;4838729;29;20060;-63
2021/12/18 01:58:07;;;;;;;202.88;100.00;;;;;;;7.39;100.00;99463.16;4837363;29;20503;-64
2021/12/18 02:00:51;;;;;;;196.80;100.90;;;;;;;7.33;100.00;99457.19;4849853;29;20073;-64
2021/12/18 02:03:40;;;;;;;199.73;99.28;;;;;;;7.36;100.00;99459.72;4835575;29;20061;-65
2021/12/18 02:06:35;;;;;;;202.35;98.68;;;;;;;7.41;100.00;99465.69;4835316;29;20139;-64
2021/12/18 02:09:10;;;;;;;201.32;96.60;;;;;;;7.33;100.00;99472.56;4828207;29;20058;-64
2021/12/18 02:12:07;;;;;;;201.80;103.60;;;;;;;7.34;100.00;99485.38;4841914;29;20061;-65
2021/12/18 02:20:50;;;;;;;207.85;101.82;;;;;;;7.50;100.00;99492.13;4830956;29;20069;-64
2021/12/18 02:23:40;;;;;;;207.13;101.75;;;;;;;7.35;100.00;99499.03;4837573;29;20081;-62
2021/12/18 02:26:23;;;;;;;217.32;102.43;;;;;;;7.21;100.00;99507.63;4830566;29;20686;-62
2021/12/18 02:29:14;;;;;;;215.63;103.18;;;;;;;7.39;100.00;99505.84;4831292;29;20078;-63
2021/12/18 02:31:56;;;;;;;217.50;101.85;;;;;;;7.25;100.00;99514.47;4834154;29;20054;-64
2021/12/18 02:34:58;;;;;;;213.55;107.43;;;;;;;7.55;100.00;99520.31;4833480;29;20061;-64
2021/12/18 02:37:39;;;;;;;203.57;105.28;;;;;;;7.71;100.00;99527.09;4827246;29;20054;-64
2021/12/18 02:40:55;;;;;;;218.45;109.30;;;;;;;7.62;100.00;99532.25;4833245;29;20099;-64
2021/12/18 02:43:41;;;;;;;201.77;102.05;;;;;;;7.59;100.00;99542.50;4833797;29;20118;-65
2021/12/18 02:46:29;;;;;;;214.88;106.72;;;;;;;7.39;100.00;99544.31;4833284;29;20451;-64
2021/12/18 02:49:19;;;;;;;207.52;105.47;;;;;;;7.41;100.00;99548.56;4835796;29;20482;-66
2021/12/18 02:52:13;;;;;;;209.98;105.47;;;;;;;7.44;100.00;99548.56;4837423;29;20379;-64
2021/12/18 02:54:48;;;;;;;223.57;108.22;;;;;;;7.46;100.00;99551.97;4835762;29;20730;-64
2021/12/18 02:57:42;;;;;;;232.98;110.00;;;;;;;7.61;100.00;99558.75;4829622;29;20649;-64
2021/12/18 03:00:29;;;;;;;226.35;109.07;;;;;;;7.68;100.00;99555.28;4836727;29;20839;-64
2021/12/18 03:03:12;;;;;;;215.20;106.13;;;;;;;7.70;100.00;99561.28;4836500;29;20475;-64
2021/12/18 03:23:47;;;;;;;195.80;100.60;;;;;;;9.91;100.00;99580.78;4827302;29;20150;-64
2021/12/18 03:26:29;;;;;;;194.55;97.78;;;;;;;10.53;97.02;99579.09;4829995;29;20739;-65
2021/12/18 03:29:23;;;;;;;210.55;98.03;;;;;;;10.77;93.82;99583.88;4834803;29;20382;-65
2021/12/18 03:31:58;;;;;;;186.95;96.45;;;;;;;11.24;92.97;99577.88;4840384;29;20140;-64
2021/12/18 03:34:47;;;;;;;183.60;93.65;;;;;;;11.69;88.76;99588.19;4840191;29;20049;-64
2021/12/18 03:37:29;;;;;;;197.20;97.13;;;;;;;12.01;86.83;99591.00;4827481;29;20150;-64
2021/12/18 03:40:22;;;;;;;183.77;97.68;;;;;;;12.58;87.68;99595.75;4834145;29;20680;-64
2021/12/18 03:43:10;;;;;;;178.88;95.50;;;;;;;13.23;78.58;99598.50;4835045;29;20053;-65
2021/12/18 03:46:06;;;;;;;206.40;100.05;;;;;;;13.82;73.48;99609.81;4824052;29;20514;-65
2021/12/18 03:53:04;;;;;;;170.25;90.88;;;;;;;13.65;69.22;99618.03;4826071;29;20537;-65
2021/12/18 03:55:51;;;;;;;190.10;93.93;;;;;;;14.43;68.11;99618.41;4833327;29;20615;-64
2021/12/18 03:58:41;;;;;;;179.65;91.85;;;;;;;14.32;69.63;99617.84;4837571;29;20053;-62
2021/12/18 04:01:23;;;;;;;171.20;90.00;;;;;;;14.42;65.98;99632.28;4837438;29;20061;-64
2021/12/18 04:04:11;;;;;;;166.70;86.93;;;;;;;15.02;66.51;99623.44;4840152;29;20049;-63
2021/12/18 04:07:00;;;;;;;173.57;89.07;;;;;;;15.42;67.46;99617.75;4837951;29;20074;-63
2021/12/18 04:09:42;;;;;;;157.52;84.70;;;;;;;15.72;65.29;99628.88;4837783;29;20058;-64
2021/12/18 04:12:30;;;;;;;153.27;84.80;;;;;;;15.62;61.31;99631.78;4818888;29;20054;-64
2021/12/18 04:15:13;;;;;;;158.90;85.18;;;;;;;15.90;60.02;99631.63;4827365;29;20057;-64
2021/12/18 04:18:10;;;;;;;161.70;84.82;;;;;;;16.07;60.12;99638.81;4836218;29;20515;-64
2021/12/18 04:20:45;;;;;;;163.50;82.47;;;;;;;15.84;60.46;99646.59;4837296;29;20054;-64
2021/12/18 04:23:40;;;;;;;169.10;84.68;;;;;;;15.79;56.88;99643.34;4847746;29;20053;-64
2021/12/18 04:26:15;;;;;;;161.38;82.93;;;;;;;15.88;60.26;99643.00;4848238;29;20473;-64
2021/12/18 04:29:06;;;;;;;174.23;87.93;;;;;;;15.81;58.47;99651.91;4839309;29;20046;-64
2021/12/18 04:31:48;;;;;;;166.18;84.82;;;;;;;15.85;60.55;99649.16;4853558;29;20054;-64
2021/12/18 04:34:43;;;;;;;162.68;82.97;;;;;;;15.90;58.80;99652.41;4838528;29;20439;-64
2021/12/18 04:37:30;;;;;;;141.63;72.82;;;;;;;15.77;56.60;99650.31;4842310;29;20049;-64
2021/12/18 04:40:25;;;;;;;148.43;75.53;;;;;;;15.66;56.12;99661.94;4846499;29;20116;-64
2021/12/18 04:43:07;;;;;;;124.45;64.47;;;;;;;16.17;55.46;99649.72;4838974;29;20054;-63
2021/12/18 04:45:55;;;;;;;112.55;55.58;;;;;;;16.21;53.06;99651.28;4860052;29;20049;-63
2021/12/18 04:48:36;;;;;;;105.13;54.33;;;;;;;15.90;52.84;99656.78;4840635;29;20050;-63
2021/12/18 04:51:24;;;;;;;104.85;51.72;;;;;;;15.99;53.25;99652.09;4844506;29;20132;-63
2021/12/18 04:54:05;;;;;;;110.40;54.50;;;;;;;15.65;53.46;99651.59;4848000;29;20053;-63
2021/12/18 04:56:55;;;;;;;117.82;53.65;;;;;;;15.88;53.11;99649.06;4835435;29;20057;-64
2021/12/18 04:59:43;;;;;;;114.07;54.33;;;;;;;15.96;52.99;99648.78;4840261;29;20057;-64
2021/12/18 05:02:39;;;;;;;110.32;55.28;;;;;;;15.83;52.11;99650.09;4840151;29;20332;-64
2021/12/18 05:05:27;;;;;;;98.53;49.15;;;;;;;15.81;50.88;99654.50;4840795;29;20068;-63
2021/12/18 05:08:10;;;;;;;93.65;47.60;;;;;;;15.99;50.49;99653.84;4837824;29;20053;-64
2021/12/18 05:10:57;;;;;;;94.63;47.92;;;;;;;15.59;50.51;99655.25;4836301;29;20061;-64
2021/12/18 05:13:47;;;;;;;98.43;48.53;;;;;;;15.68;50.78;99647.16;4843790;29;20141;-64
2021/12/18 05:16:30;;;;;;;99.18;49.55;;;;;;;15.61;51.14;99647.41;4821746;29;20058;-64
2021/12/18 05:19:20;;;;;;;107.57;52.88;;;;;;;15.82;51.76;99653.59;4829915;29;20878;-64
2021/12/18 05:22:03;;;;;;;131.25;55.25;;;;;;;16.02;50.04;99645.94;4836689;29;20060;-64
2021/12/18 05:24:52;;;;;;;116.03;55.28;;;;;;;16.08;51.22;99651.75;4842361;29;20297;-64
2021/12/18 05:27:47;;;;;;;123.50;60.17;;;;;;;15.96;51.75;99643.56;4845758;29;20118;-64
2021/12/18 05:30:22;;;;;;;122.72;59.08;;;;;;;15.82;50.52;99649.25;4835564;29;20072;-63
2021/12/18 05:33:17;;;;;;;132.35;60.33;;;;;;;16.18;53.07;99651.44;4819659;29;20416;-64
2021/12/18 05:35:58;;;;;;;116.57;58.67;;;;;;;16.30;48.68;99656.16;4830812;29;20050;-64
2021/12/18 05:38:47;;;;;;;113.18;56.60;;;;;;;16.20;49.10;99655.69;4829191;29;20440;-64
2021/12/18 05:41:29;;;;;;;107.63;54.67;;;;;;;16.74;48.86;99659.69;4843528;29;20091;-64
2021/12/18 05:44:18;;;;;;;106.45;55.10;;;;;;;16.90;47.60;99660.78;4835980;29;20063;-64
2021/12/18 05:46:59;;;;;;;103.38;54.85;;;;;;;16.53;46.59;99660.47;4841496;29;20053;-63
2021/12/18 05:49:49;;;;;;;130.50;60.80;;;;;;;16.52;48.37;99651.84;4842262;29;20793;-64
2021/12/18 05:52:31;;;;;;;128.82;64.75;;;;;;;16.68;50.46;99658.16;4842422;29;20049;-64
2021/12/18 05:55:23;;;;;;;137.80;66.85;;;;;;;16.91;47.45;99659.88;4843926;29;20057;-64
2021/12/18 05:58:11;;;;;;;142.43;66.18;;;;;;;16.54;50.07;99651.78;4839345;29;20129;-65
2021/12/18 06:01:01;;;;;;;132.82;64.38;;;;;;;16.36;48.69;99650.75;4842615;29;20142;-64
2021/12/18 06:03:48;;;;;;;130.20;63.55;;;;;;;16.97;50.74;99649.22;4833132;29;20058;-64
2021/12/18 06:06:39;;;;;;;126.68;61.50;;;;;;;16.43;49.48;99653.06;4835996;29;20078;-63
2021/12/18 06:09:26;;;;;;;131.30;62.72;;;;;;;16.60;49.86;99638.56;4842912;29;20090;-64
2021/12/18 06:12:16;;;;;;;136.93;62.72;;;;;;;16.41;50.34;99634.06;4840084;29;20054;-65
2021/12/18 06:14:59;;;;;;;150.27;62.95;;;;;;;16.55;49.52;99627.47;4846177;29;20088;-64
2021/12/18 06:17:48;;;;;;;130.40;64.68;;;;;;;16.54;49.59;99628.34;4852750;29;20130;-64
2021/12/18 06:20:30;;;;;;;144.82;63.53;;;;;;;16.43;49.34;99621.84;4848560;29;20053;-65
2021/12/18 06:23:18;;;;;;;140.40;67.18;;;;;;;16.11;51.16;99610.97;4842669;29;20136;-65
2021/12/18 06:26:00;;;;;;;148.45;69.97;;;;;;;16.50;52.54;99606.00;4843572;29;20050;-66
2021/12/18 06:28:48;;;;;;;137.55;69.53;;;;;;;16.50;51.06;99613.78;4849063;29;20422;-64
2021/12/18 06:31:44;;;;;;;134.15;69.32;;;;;;;17.21;51.81;99598.72;4850254;29;20053;-64
2021/12/18 06:34:41;;;;;;;137.05;68.43;;;;;;;16.77;51.42;99594.50;4846573;29;20065;-64
2021/12/18 06:37:29;;;;;;;144.73;70.22;;;;;;;16.99;53.07;99595.34;4847059;29;20053;-65
2021/12/18 06:40:17;;;;;;;133.57;70.70;;;;;;;17.35;53.77;99582.50;4842430;29;20089;-65
2021/12/18 06:42:59;;;;;;;145.68;77.75;;;;;;;17.07;52.00;99577.63;4839534;29;20200;-64
2021/12/18 06:45:47;;;;;;;156.63;76.55;;;;;;;16.80;51.93;99576.16;4839434;29;20073;-66
2021/12/18 06:48:29;;;;;;;152.25;76.65;;;;;;;16.97;52.59;99568.50;4839040;29;20062;-65
2021/12/18 06:51:18;;;;;;;143.90;75.88;;;;;;;16.75;52.39;99565.97;4837644;29;20067;-65
2021/12/18 06:53:59;;;;;;;247.30;83.68;;;;;;;17.01;53.35;99561.41;4839507;29;20102;-64
2021/12/18 06:56:49;;;;;;;161.98;76.50;;;;;;;16.75;51.58;99555.56;4840371;29;20079;-64
2021/12/18 06:59:31;;;;;;;146.25;77.25;;;;;;;17.01;52.39;99551.84;4840916;29;20057;-65
2021/12/18 07:02:21;;;;;;;135.90;69.97;;;;;;;17.47;52.47;99552.47;4845805;29;20073;-64
2021/12/18 07:05:10;;;;;;;134.10;60.47;;;;;;;16.82;50.31;99551.78;4841650;29;20054;-66
2021/12/18 07:07:46;;;;;;;133.15;67.32;;;;;;;16.99;50.80;99542.41;4836966;29;20061;-64
2021/12/18 07:10:35;;;;;;;132.57;66.70;;;;;;;16.90;53.87;99535.00;4843332;29;20505;-63
2021/12/18 07:13:23;;;;;;;124.32;67.15;;;;;;;16.97;57.32;99539.03;4837819;29;20449;-63
2021/12/18 07:16:06;;;;;;;120.63;64.65;;;;;;;16.80;56.88;99537.13;4838856;29;20056;-64
2021/12/18 07:18:55;;;;;;;126.55;65.82;;;;;;;16.73;60.72;99530.50;4837535;29;20102;-65
2021/12/18 07:21:37;;;;;;;119.18;60.53;;;;;;;16.61;54.60;99531.81;4843646;29;20149;-63
2021/12/18 07:24:25;;;;;;;130.05;59.45;;;;;;;16.75;57.01;99524.31;4838166;29;20483;-67
2021/12/18 07:27:07;;;;;;;116.10;55.42;;;;;;;16.77;53.46;99525.09;4842205;29;20509;-61
2021/12/18 07:29:55;;;;;;;106.55;49.88;;;;;;;17.01;51.63;99530.16;4840046;29;20542;-61
2021/12/18 07:32:45;;;;;;;108.18;51.30;;;;;;;17.04;53.70;99522.22;4841218;29;20089;-63
2021/12/18 07:35:27;;;;;;;98.05;53.97;;;;;;;16.92;54.65;99515.78;4840319;29;20053;-63
2021/12/18 07:38:15;;;;;;;100.38;53.85;;;;;;;16.96;55.44;99506.94;4840829;29;20046;-65
2021/12/18 07:40:57;;;;;;;110.55;57.15;;;;;;;16.95;55.28;99505.25;4836964;29;20487;-64
2021/12/18 07:43:46;;;;;;;111.90;58.38;;;;;;;16.82;58.23;99498.88;4831417;29;20062;-66
2021/12/18 07:46:27;;;;;;;106.75;58.10;;;;;;;16.88;55.94;99496.00;4835609;29;20058;-64
2021/12/18 07:49:17;;;;;;;112.35;57.72;;;;;;;16.84;56.38;99497.06;4833223;29;20106;-64
2021/12/18 07:52:03;;;;;;;110.93;58.28;;;;;;;16.88;54.32;99490.81;4860065;29;20072;-64
2021/12/18 07:54:51;;;;;;;103.95;55.83;;;;;;;16.97;56.48;99490.41;4845892;29;20080;-61
2021/12/18 07:57:47;;;;;;;119.15;57.03;;;;;;;17.06;56.79;99486.56;4840775;29;20137;-64
2021/12/18 08:00:23;;;;;;;112.57;56.20;;;;;;;16.97;55.76;99477.41;4840601;29;20062;-63
2021/12/18 08:03:12;;;;;;;;;;;;;;;17.00;56.80;99472.03;4828096;29;20061;-61
2021/12/18 08:06:02;;;;;;;100.45;54.03;;;;;;;16.92;58.14;99468.94;4842945;29;19936;-66
2021/12/18 08:08:50;;;;;;;113.40;57.33;;;;;;;17.00;57.71;99461.63;4837466;29;20061;-64
2021/12/18 08:11:32;;;;;;;112.20;57.15;;;;;;;17.01;55.76;99463.31;4824308;29;20048;-62
2021/12/18 08:14:21;;;;;;;106.00;57.22;;;;;;;17.06;58.08;99453.56;4841796;29;20546;-62
2021/12/18 08:17:03;;;;;;;109.85;58.83;;;;;;;16.94;58.94;99456.69;4838588;29;20072;-60
2021/12/18 08:19:53;;;;;;;102.53;54.63;;;;;;;16.85;54.79;99451.88;4829211;29;20055;-60
2021/12/18 08:22:41;;;;;;;111.32;54.92;;;;;;;16.83;58.22;99454.59;4495441;29;10000204;-63
2021/12/18 08:25:39;;;;;;;113.60;52.90;;;;;;;16.84;55.18;99448.44;4850155;29;20065;-62
2021/12/18 08:28:14;;;;;;;103.22;53.85;;;;;;;16.82;55.18;99447.69;4829273;29;20393;-64
2021/12/18 08:31:02;;;;;;;91.93;52.58;;;;;;;16.92;55.83;99436.88;4836907;29;20086;-61
2021/12/18 08:33:44;;;;;;;104.22;55.35;;;;;;;16.78;55.49;99438.31;4839682;29;20437;-62
2021/12/18 08:36:39;;;;;;;121.22;58.00;;;;;;;16.79;58.30;99426.13;4835561;29;20114;-63
2021/12/18 08:39:15;;;;;;;113.40;58.55;;;;;;;16.92;59.76;99422.06;4831559;29;20054;-63
2021/12/18 08:42:11;;;;;;;117.80;60.25;;;;;;;16.87;59.33;99421.44;4819982;29;20414;-62
2021/12/18 08:44:49;;;;;;;103.40;56.97;;;;;;;17.05;59.40;99422.41;4825460;29;20501;-62
2021/12/18 08:47:38;;;;;;;93.95;48.00;;;;;;;16.79;56.35;99408.75;4823529;29;20058;-64
2021/12/18 08:50:28;;;;;;;96.15;48.17;;;;;;;16.92;56.34;99409.06;4823054;29;20642;-63
2021/12/18 08:53:16;;;;;;;91.50;45.53;;;;;;;16.99;55.80;99412.25;4827805;29;20054;-62
2021/12/18 08:55:58;;;;;;;98.18;45.25;;;;;;;16.98;55.43;99406.22;4836486;29;20140;-63
2021/12/18 08:58:46;;;;;;;86.40;43.30;;;;;;;16.82;54.17;99398.25;4829316;29;20754;-62
2021/12/18 09:01:29;;;;;;;97.53;44.70;;;;;;;16.90;55.62;99397.91;4826229;29;20050;-62
2021/12/18 09:04:19;;;;;;;76.60;43.00;;;;;;;16.89;56.29;99398.81;4824527;29;20098;-62
2021/12/18 09:07:02;;;;;;;97.55;42.33;;;;;;;16.79;54.10;99398.34;4827289;29;20045;-64
2021/12/18 09:09:51;;;;;;;81.40;38.58;;;;;;;16.95;55.97;99401.13;4830473;29;20046;-59
2021/12/18 09:12:33;;;;;;;80.10;37.83;;;;;;;16.84;52.61;99399.00;4822955;29;20054;-61
2021/12/18 09:15:23;;;;;;;72.28;33.88;;;;;;;16.75;51.47;99395.97;4831213;29;20046;-61
2021/12/18 09:18:12;;;;;;;72.13;34.50;;;;;;;16.87;51.31;99391.97;4827865;29;20070;-63
2021/12/18 09:20:53;;;;;;;73.63;33.53;;;;;;;17.04;51.39;99390.31;4818375;29;20058;-64
2021/12/18 09:23:43;;;;;;;75.82;36.53;;;;;;;16.95;52.42;99385.50;4829604;29;20515;-64
2021/12/18 09:26:25;;;;;;;76.88;36.83;;;;;;;16.82;53.37;99379.16;4838878;29;20054;-64
2021/12/18 09:29:14;;;;;;;83.32;38.33;;;;;;;16.68;53.44;99381.53;4844884;29;20052;-64
2021/12/18 09:32:03;;;;;;;73.38;37.35;;;;;;;16.77;56.57;99366.34;4838363;29;20113;-62
2021/12/18 09:34:52;;;;;;;72.40;38.10;;;;;;;16.76;54.45;99374.25;4831595;29;20102;-62
2021/12/18 09:37:48;;;;;;;74.75;38.45;;;;;;;16.82;55.08;99371.38;4829896;29;20054;-64
2021/12/18 09:40:23;;;;;;;71.57;35.97;;;;;;;16.79;53.25;99371.50;4835227;29;20510;-63
2021/12/18 09:43:11;;;;;;;77.75;35.13;;;;;;;16.82;54.77;99369.59;4834929;29;20053;-61
2021/12/18 09:45:53;;;;;;;77.63;35.45;;;;;;;16.81;55.58;99359.25;4827463;29;20710;-63
2021/12/18 09:48:43;;;;;;;76.72;36.70;;;;;;;16.74;53.23;99369.09;4827114;29;20378;-61
2021/12/18 09:51:27;;;;;;;76.38;35.10;;;;;;;16.74;52.72;99369.09;4819101;29;20076;-62
2021/12/18 09:54:23;;;;;;;74.53;34.03;;;;;;;16.59;52.05;99361.94;4835195;29;20081;-63
2021/12/18 09:56:58;;;;;;;70.95;34.08;;;;;;;16.64;53.96;99353.94;4844575;29;20137;-62
2021/12/18 09:59:54;;;;;;;67.25;32.72;;;;;;;16.63;52.51;99357.47;4844988;29;20062;-62
2021/12/18 10:02:39;;;;;;;64.03;33.33;;;;;;;16.59;51.54;99348.94;4828943;29;20049;-63
2021/12/18 10:05:41;;;;;;;68.70;33.78;;;;;;;16.44;53.21;99350.41;4837988;29;20546;-63
2021/12/18 10:08:17;;;;;;;86.10;33.80;;;;;;;16.51;54.34;99344.97;4842762;29;20121;-63
2021/12/18 10:11:10;;;;;;;66.25;33.72;;;;;;;16.46;53.12;99340.78;4831546;29;20057;-62
2021/12/18 10:14:02;;;;;;;70.40;31.50;;;;;;;16.46;51.86;99343.41;4830751;29;20124;-62
2021/12/18 10:16:59;;;;;;;70.05;31.83;;;;;;;16.42;52.73;99336.66;4832330;29;20054;-63
2021/12/18 10:19:39;;;;;;;62.05;32.78;;;;;;;16.41;53.28;99337.56;4837248;29;20042;-63
2021/12/18 10:22:40;;;;;;;67.93;31.95;;;;;;;16.44;52.86;99337.41;4829117;29;20058;-61
2021/12/18 10:25:18;;;;;;;64.70;30.90;;;;;;;16.43;55.70;99334.91;4828561;29;20366;-63
2021/12/18 10:28:22;;;;;;;52.58;30.70;;;;;;;16.37;51.46;99335.13;4834557;29;20060;-63
2021/12/18 10:30:58;;;;;;;75.53;28.83;;;;;;;16.26;49.90;99338.22;4848184;29;20060;-62
2021/12/18 10:33:53;;;;;;;61.55;28.50;;;;;;;16.20;50.97;99341.09;4834859;29;20057;-63
2021/12/18 10:36:35;;;;;;;57.85;27.95;;;;;;;16.12;51.91;99343.16;4824756;29;20058;-62
2021/12/18 10:39:27;;;;;;;65.55;30.35;;;;;;;16.01;50.62;99334.97;4837729;29;20400;-62
2021/12/18 10:42:42;;;;;;;66.55;27.80;;;;;;;15.96;52.06;99329.13;4831930;29;20570;-65
2021/12/18 10:45:32;;;;;;;59.67;30.98;;;;;;;15.94;53.93;99341.31;4836822;29;20045;-62
2021/12/18 10:48:19;;;;;;;65.38;30.13;;;;;;;15.93;53.79;99335.28;4840801;29;20530;-64
2021/12/18 10:51:01;;;;;;;55.72;29.42;;;;;;;15.95;55.51;99340.41;4842903;29;20148;-63
2021/12/18 10:53:49;;;;;;;61.92;29.90;;;;;;;15.83;53.33;99335.72;4842215;29;20049;-63
2021/12/18 10:56:44;;;;;;;65.10;30.50;;;;;;;15.80;54.56;99333.25;4842217;29;20061;-62
2021/12/18 10:59:41;;;;;;;60.72;31.20;;;;;;;15.73;58.69;99326.59;4841377;29;20140;-65
2021/12/18 11:02:16;;;;;;;68.60;29.48;;;;;;;15.66;56.00;99332.03;4839698;29;20157;-63
2021/12/18 11:05:24;;;;;;;67.43;29.55;;;;;;;15.60;53.62;99327.09;4845376;29;20503;-62
2021/12/18 11:08:11;;;;;;;71.05;29.73;;;;;;;15.50;53.44;99325.72;4846442;29;20060;-63
2021/12/18 11:14:20;;;;;;;59.40;29.88;;;;;;;15.54;57.65;99326.50;4843603;29;20057;-62
2021/12/18 11:17:05;;;;;;;57.90;31.05;;;;;;;15.46;52.94;99329.38;4844567;29;20054;-62
2021/12/18 11:19:55;;;;;;;64.63;29.83;;;;;;;15.44;55.34;99319.94;4832316;29;20054;-62
2021/12/18 11:22:37;;;;;;;77.50;30.13;;;;;;;15.44;56.35;99328.56;4836179;29;20054;-60
2021/12/18 11:25:25;;;;;;;66.47;30.25;;;;;;;15.31;57.33;99325.63;4840454;29;20545;-61
2021/12/18 11:28:08;;;;;;;63.53;30.20;;;;;;;15.22;60.52;99317.34;4839222;29;20081;-63
2021/12/18 11:30:57;;;;;;;71.75;32.17;;;;;;;15.18;59.66;99313.16;4840852;29;20133;-62
2021/12/18 11:33:39;;;;;;;71.10;31.23;;;;;;;15.16;59.66;99315.84;4841141;29;20477;-62
2021/12/18 11:36:34;;;;;;;66.03;30.85;;;;;;;15.07;65.52;99315.34;4843260;29;20053;-63
2021/12/18 11:39:12;;;;;;;73.03;31.55;;;;;;;14.94;66.01;99310.59;4849945;29;20144;-63
2021/12/18 11:42:09;;;;;;;70.68;32.88;;;;;;;14.89;71.56;99312.53;4835049;29;20062;-62
2021/12/18 11:44:52;;;;;;;86.30;33.85;;;;;;;14.62;72.19;99307.50;4835669;29;20140;-62
2021/12/18 11:47:50;;;;;;;75.63;34.08;;;;;;;14.51;74.30;99310.50;4837178;29;20064;-62
2021/12/18 11:50:31;;;;;;;75.25;32.08;;;;;;;14.32;73.32;99297.28;4837034;29;20068;-64
2021/12/18 11:53:31;;;;;;;70.63;33.85;;;;;;;14.21;77.36;99302.00;4836580;29;20102;-64
2021/12/18 11:56:14;;;;;;;73.80;34.57;;;;;;;13.98;77.22;99300.19;4839231;29;20057;-64
2021/12/18 11:59:01;;;;;;;76.32;33.10;;;;;;;13.93;78.86;99299.53;4839054;29;20297;-64
2021/12/18 12:01:51;;;;;;;72.97;36.30;;;;;;;13.93;80.01;99298.66;4835447;29;20534;-65
2021/12/18 12:05:04;;;;;;;77.28;35.30;;;;;;;13.75;84.24;99289.75;4845073;29;20144;-65
2021/12/18 12:07:39;;;;;;;73.25;34.63;;;;;;;13.60;84.08;99282.50;4833064;29;20180;-64
2021/12/18 12:14:21;;;;;;;88.60;38.35;;;;;;;13.35;84.94;99293.63;4834389;29;20070;-65
2021/12/18 12:17:17;;;;;;;84.45;36.33;;;;;;;13.05;84.35;99294.56;4838045;29;20110;-65
2021/12/18 12:20:11;;;;;;;88.78;38.05;;;;;;;12.88;87.21;99289.03;4838609;29;20130;-66
2021/12/18 12:23:03;;;;;;;89.53;39.47;;;;;;;12.88;89.10;99301.97;4836740;29;20054;-65
2021/12/18 12:26:01;;;;;;;88.25;40.38;;;;;;;12.69;89.58;99296.47;4829851;29;20046;-63
2021/12/18 12:28:53;;;;;;;89.88;39.75;;;;;;;12.71;88.85;99304.19;4830527;29;20049;-64
2021/12/18 12:31:42;;;;;;;86.00;39.70;;;;;;;12.57;90.01;99300.25;4841952;29;20121;-64
2021/12/18 12:34:25;;;;;;;89.65;40.70;;;;;;;12.42;90.13;99302.44;4841396;29;20050;-68
2021/12/18 12:37:38;;;;;;;104.13;42.35;;;;;;;12.35;90.69;99299.16;4842607;29;20112;-67
2021/12/18 12:40:35;;;;;;;82.88;42.67;;;;;;;12.26;91.72;99302.00;4500112;29;10000074;-63
2021/12/18 12:43:28;;;;;;;92.15;42.05;;;;;;;12.19;92.79;99295.31;4838410;29;20046;-67
2021/12/18 12:46:19;;;;;;;97.20;42.80;;;;;;;12.14;94.05;99297.13;4844003;29;20052;-66
2021/12/18 12:49:15;;;;;;;102.45;42.90;;;;;;;12.22;95.55;99300.38;4839278;29;20613;-66
2021/12/18 12:52:06;;;;;;;111.47;44.72;;;;;;;12.12;95.85;99299.78;4834372;29;20056;-68
2021/12/18 12:55:12;;;;;;;113.15;45.25;;;;;;;11.99;96.04;99311.31;4841797;29;20064;-67
2021/12/18 12:58:01;;;;;;;112.00;50.83;;;;;;;11.88;98.57;99311.59;4504389;29;10000578;-67
2021/12/18 13:00:45;;;;;;;115.82;53.40;;;;;;;11.75;99.16;99301.59;4839064;29;20064;-65
2021/12/18 13:03:37;;;;;;;126.68;54.15;;;;;;;11.79;99.82;99306.66;4840870;29;20049;-66
2021/12/18 13:06:37;;;;;;;114.95;54.80;;;;;;;11.92;100.00;99317.50;4840105;29;20060;-67
2021/12/18 13:09:26;;;;;;;126.72;54.95;;;;;;;11.85;100.00;99315.97;4838890;29;20053;-65
2021/12/18 13:12:14;;;;;;;112.47;54.75;;;;;;;11.61;100.00;99307.06;4840271;29;20517;-68
2021/12/18 13:15:03;;;;;;;127.20;56.25;;;;;;;11.54;100.00;99310.69;4838278;29;20069;-65
2021/12/18 13:17:46;;;;;;;131.75;53.92;;;;;;;11.65;100.00;99313.88;4840851;29;20145;-65
2021/12/18 13:20:44;;;;;;;140.32;56.72;;;;;;;11.67;100.00;99319.81;4838360;29;20057;-64
2021/12/18 13:23:27;;;;;;;130.55;53.63;;;;;;;11.75;100.00;99324.81;4832192;29;20046;-64
2021/12/18 13:26:23;;;;;;;122.88;53.65;;;;;;;11.77;100.00;99318.75;4837641;29;20054;-64
2021/12/18 13:29:17;;;;;;;122.03;55.05;;;;;;;11.76;100.00;99326.53;4845618;29;20053;-64
2021/12/18 13:31:59;;;;;;;133.77;56.70;;;;;;;11.64;100.00;99332.81;4842866;29;20583;-65